Time;durP1;ratioP1;P1;durP2;ratioP2;P2;SDS_P1;SDS_P2;PMS_P1;PMS_P2;Temp;Humidity;BMP_temperature;BMP_pressure;BME280_temperature;BME280_humidity;BME280_pressure;Samples;Min_cycle;Max_cycle;Signal;HPM_P1;HPM_P2
2023/08/11 00:02:01;;;;;;;;;;;16.80;83.90;;;;;;4985041;28;19918;-84
2023/08/11 00:04:26;;;;;;;;;;;16.80;83.60;;;;;;4984874;28;19968;-84
2023/08/11 00:06:52;;;;;;;;;;;16.70;83.70;;;;;;4982165;28;19925;-85
2023/08/11 00:09:18;;;;;;;;;;;16.70;83.70;;;;;;4980349;28;19914;-84
2023/08/11 00:11:44;;;;;;;;;;;16.60;83.90;;;;;;4980985;28;19918;-84
2023/08/11 00:14:10;;;;;;;;;;;16.50;84.50;;;;;;4977265;28;19932;-84
2023/08/11 00:16:35;;;;;;;;;;;16.50;84.70;;;;;;4977691;28;20286;-84
2023/08/11 00:19:01;;;;;;;;;;;16.40;85.00;;;;;;4991799;28;20271;-84
2023/08/11 00:21:26;;;;;;;;;;;16.50;85.10;;;;;;4989485;28;20142;-84
2023/08/11 00:23:52;;;;;;;;;;;16.40;85.40;;;;;;4977384;28;19973;-83
2023/08/11 00:26:17;;;;;;;;;;;16.40;85.60;;;;;;4989367;28;19914;-83
2023/08/11 00:28:44;;;;;;;;;;;16.30;85.60;;;;;;4987537;28;19919;-84
2023/08/11 00:31:10;;;;;;;;;;;16.30;85.60;;;;;;4973024;28;20392;-84
2023/08/11 00:33:36;;;;;;;;;;;16.30;85.60;;;;;;4973372;28;19988;-83
2023/08/11 00:36:01;;;;;;;;;;;16.40;85.60;;;;;;4992064;28;19918;-84
2023/08/11 00:38:35;;;;;;;;;;;16.50;85.20;;;;;;4992679;28;19914;-84
2023/08/11 00:41:01;;;;;;;;;;;16.40;85.40;;;;;;4978131;28;19921;-85
2023/08/11 00:43:27;;;;;;;;;;;16.30;85.50;;;;;;4979373;28;19922;-84
2023/08/11 00:45:52;;;;;;;;;;;16.30;85.50;;;;;;4981173;28;19942;-84
2023/08/11 00:48:18;;;;;;;;;;;16.40;85.00;;;;;;4978965;28;19957;-84
2023/08/11 00:50:43;;;;;;;;;;;16.40;85.00;;;;;;4978791;28;21325;-83
2023/08/11 00:53:09;;;;;;;;;;;16.40;85.30;;;;;;4994331;28;20007;-84
2023/08/11 00:55:35;;;;;;;;;;;16.40;85.30;;;;;;4977145;28;19988;-84
2023/08/11 00:58:01;;;;;;;;;;;16.40;84.80;;;;;;4980273;28;19914;-84
2023/08/11 01:00:28;;;;;;;;;;;16.40;84.90;;;;;;4977976;28;20436;-84
2023/08/11 01:02:53;;;;;;;;;;;16.30;85.20;;;;;;4978692;28;19937;-85
2023/08/11 01:05:19;;;;;;;;;;;16.40;85.30;;;;;;4980329;28;19918;-84
2023/08/11 01:07:56;;;;;;;;;;;16.50;84.40;;;;;;4994294;28;20409;-84
2023/08/11 01:10:35;;;;;;;;;;;16.50;84.00;;;;;;4985701;28;19920;-85
2023/08/11 01:13:10;;;;;;;;;;;16.30;84.50;;;;;;4992287;28;19915;-85
2023/08/11 01:15:40;;;;;;;;;;;16.30;84.50;;;;;;4977004;28;19918;-84
2023/08/11 01:18:06;;;;;;;;;;;16.30;84.70;;;;;;4994915;28;19946;-83
2023/08/11 01:20:33;;;;;;;;;;;16.20;85.10;;;;;;4977369;28;19914;-84
2023/08/11 01:22:59;;;;;;;;;;;16.30;84.50;;;;;;4979066;28;19914;-84
2023/08/11 01:25:25;;;;;;;;;;;16.30;84.40;;;;;;4979460;28;19919;-84
2023/08/11 01:27:55;;;;;;;;;;;16.30;84.50;;;;;;4978270;28;19924;-84
2023/08/11 01:30:20;;;;;;;;;;;16.30;84.50;;;;;;4978669;28;19914;-85
2023/08/11 01:32:46;;;;;;;;;;;16.40;84.30;;;;;;4978135;28;19929;-83
2023/08/11 01:35:11;;;;;;;;;;;16.30;84.60;;;;;;4994853;28;20005;-85
2023/08/11 01:37:37;;;;;;;;;;;16.40;83.90;;;;;;4979047;28;19922;-83
2023/08/11 01:40:10;;;;;;;;;;;16.50;83.40;;;;;;4977745;28;19918;-83
2023/08/11 01:42:35;;;;;;;;;;;16.30;84.00;;;;;;4994502;28;19984;-83
2023/08/11 01:45:01;;;;;;;;;;;16.40;84.20;;;;;;4991992;28;20309;-84
2023/08/11 01:47:26;;;;;;;;;;;16.40;83.90;;;;;;4993958;28;19921;-84
2023/08/11 01:49:52;;;;;;;;;;;16.30;84.00;;;;;;4976259;28;19973;-84
2023/08/11 01:52:18;;;;;;;;;;;16.50;83.50;;;;;;4975578;28;19918;-84
2023/08/11 01:54:43;;;;;;;;;;;16.30;83.90;;;;;;4978927;28;19985;-83
2023/08/11 01:57:09;;;;;;;;;;;16.20;83.80;;;;;;4977568;28;19914;-83
2023/08/11 01:59:35;;;;;;;;;;;16.20;83.50;;;;;;4979032;28;19995;-83
2023/08/11 02:02:00;;;;;;;;;;;16.20;84.20;;;;;;5007328;23;19933;-82
2023/08/11 02:04:26;;;;;;;;;;;16.20;84.00;;;;;;4997385;28;20402;-82
2023/08/11 02:06:51;;;;;;;;;;;16.30;84.20;;;;;;5006308;28;20391;-83
2023/08/11 02:09:17;;;;;;;;;;;16.50;83.20;;;;;;4999710;28;19925;-82
2023/08/11 02:11:42;;;;;;;;;;;16.40;82.70;;;;;;4988771;28;19949;-82
2023/08/11 02:14:08;;;;;;;;;;;16.30;83.60;;;;;;4980171;28;19914;-81
2023/08/11 02:16:35;;;;;;;;;;;16.30;83.90;;;;;;4975287;28;19977;-82
2023/08/11 02:19:00;;;;;;;;;;;16.50;83.50;;;;;;4976466;28;20072;-82
2023/08/11 02:21:27;;;;;;;;;;;16.40;83.50;;;;;;4975356;28;20431;-82
2023/08/11 02:23:52;;;;;;;;;;;16.30;84.40;;;;;;4978446;28;20364;-82
2023/08/11 02:26:18;;;;;;;;;;;16.30;84.40;;;;;;4993171;28;19929;-83
2023/08/11 02:28:43;;;;;;;;;;;16.40;83.90;;;;;;4980271;28;19921;-82
2023/08/11 02:31:08;;;;;;;;;;;16.40;83.40;;;;;;4979114;28;19914;-82
2023/08/11 02:33:34;;;;;;;;;;;16.40;83.00;;;;;;4979779;28;20355;-83
2023/08/11 02:36:00;;;;;;;;;;;16.30;83.70;;;;;;4978340;28;20272;-83
2023/08/11 02:38:25;;;;;;;;;;;16.20;83.90;;;;;;4976696;28;20111;-83
2023/08/11 02:40:51;;;;;;;;;;;16.20;83.50;;;;;;4979723;28;19925;-83
2023/08/11 02:43:16;;;;;;;;;;;16.30;83.20;;;;;;4979294;28;20299;-83
2023/08/11 02:45:42;;;;;;;;;;;16.40;83.00;;;;;;4977778;28;19921;-83
2023/08/11 02:48:07;;;;;;;;;;;16.40;82.50;;;;;;4981612;28;19985;-82
2023/08/11 02:50:33;;;;;;;;;;;16.20;83.20;;;;;;4990598;28;19918;-82
2023/08/11 02:52:59;;;;;;;;;;;16.10;83.20;;;;;;4980857;28;19918;-83
2023/08/11 02:55:24;;;;;;;;;;;16.00;83.80;;;;;;4979127;28;19948;-83
2023/08/11 02:57:50;;;;;;;;;;;16.10;83.80;;;;;;4996789;28;19996;-83
2023/08/11 03:00:15;;;;;;;;;;;16.10;83.70;;;;;;4979969;28;19914;-83
2023/08/11 03:02:41;;;;;;;;;;;16.10;84.20;;;;;;4980218;28;19922;-82
2023/08/11 03:05:07;;;;;;;;;;;16.20;83.20;;;;;;4980389;28;19914;-83
2023/08/11 03:07:34;;;;;;;;;;;16.10;83.70;;;;;;4981050;28;19990;-82
2023/08/11 03:10:00;;;;;;;;;;;16.10;83.90;;;;;;4980579;28;19996;-82
2023/08/11 03:12:27;;;;;;;;;;;16.00;84.30;;;;;;4979388;28;19914;-82
2023/08/11 03:14:53;;;;;;;;;;;16.00;84.20;;;;;;4973167;28;19911;-83
2023/08/11 03:17:18;;;;;;;;;;;16.00;84.10;;;;;;4984600;28;20296;-82
2023/08/11 03:19:44;;;;;;;;;;;16.00;84.10;;;;;;4972403;28;19918;-81
2023/08/11 03:22:09;;;;;;;;;;;16.10;83.80;;;;;;4972846;28;19921;-82
2023/08/11 03:24:35;;;;;;;;;;;16.00;84.00;;;;;;4975841;28;19925;-82
2023/08/11 03:27:00;;;;;;;;;;;16.00;84.20;;;;;;4975058;28;19929;-83
2023/08/11 03:29:26;;;;;;;;;;;16.00;84.10;;;;;;4994791;28;19997;-81
2023/08/11 03:31:51;;;;;;;;;;;16.00;84.00;;;;;;4980280;28;19914;-82
2023/08/11 03:34:16;;;;;;;;;;;16.10;83.60;;;;;;4979497;28;19914;-83
2023/08/11 03:36:44;;;;;;;;;;;16.20;83.10;;;;;;4981256;28;20012;-82
2023/08/11 03:39:09;;;;;;;;;;;16.30;82.20;;;;;;4980848;28;19927;-83
2023/08/11 03:41:35;;;;;;;;;;;16.30;82.40;;;;;;4991280;28;19918;-83
2023/08/11 03:44:00;;;;;;;;;;;16.10;83.10;;;;;;4989610;28;19918;-83
2023/08/11 03:46:26;;;;;;;;;;;16.10;83.00;;;;;;4982958;28;19921;-83
2023/08/11 03:48:51;;;;;;;;;;;16.10;82.90;;;;;;4982416;28;19989;-84
2023/08/11 03:51:17;;;;;;;;;;;16.00;83.60;;;;;;4996132;28;19921;-84
2023/08/11 03:53:42;;;;;;;;;;;16.00;83.60;;;;;;4978998;28;19921;-82
2023/08/11 03:56:08;;;;;;;;;;;16.00;83.20;;;;;;4979205;28;20410;-84
2023/08/11 03:58:39;;;;;;;;;;;16.00;83.50;;;;;;4993094;28;19926;-84
2023/08/11 04:01:05;;;;;;;;;;;16.00;83.00;;;;;;4981043;28;20024;-83
2023/08/11 04:03:31;;;;;;;;;;;15.80;83.50;;;;;;4978781;28;20517;-83
2023/08/11 04:05:57;;;;;;;;;;;15.70;83.70;;;;;;4980334;28;19945;-83
2023/08/11 04:08:22;;;;;;;;;;;15.80;84.00;;;;;;4993398;28;19922;-83
2023/08/11 04:10:48;;;;;;;;;;;15.90;84.00;;;;;;4993109;28;19957;-85
2023/08/11 04:13:13;;;;;;;;;;;15.70;84.60;;;;;;4980322;28;19914;-84
2023/08/11 04:15:39;;;;;;;;;;;15.60;85.00;;;;;;4999294;28;20475;-85
2023/08/11 04:18:04;;;;;;;;;;;15.60;85.10;;;;;;4999903;28;19961;-84
2023/08/11 04:20:30;;;;;;;;;;;15.60;85.40;;;;;;4984079;28;20012;-83
2023/08/11 04:22:56;;;;;;;;;;;15.60;85.30;;;;;;4986110;28;19914;-83
2023/08/11 04:25:21;;;;;;;;;;;15.60;85.40;;;;;;4985311;28;19914;-82
2023/08/11 04:27:46;;;;;;;;;;;15.50;85.60;;;;;;4980764;28;19969;-84
2023/08/11 04:30:12;;;;;;;;;;;15.50;86.00;;;;;;4980505;28;19977;-84
2023/08/11 04:32:38;;;;;;;;;;;15.50;85.90;;;;;;4977127;28;19941;-84
2023/08/11 04:35:07;;;;;;;;;;;15.50;86.00;;;;;;4973835;28;19918;-82
2023/08/11 04:37:33;;;;;;;;;;;15.50;86.00;;;;;;4976868;28;20419;-82
2023/08/11 04:39:59;;;;;;;;;;;15.50;85.90;;;;;;4977629;28;19914;-82
2023/08/11 04:42:25;;;;;;;;;;;15.60;85.80;;;;;;4976793;28;19925;-84
2023/08/11 04:44:50;;;;;;;;;;;15.60;85.60;;;;;;4982644;28;19920;-84
2023/08/11 04:47:15;;;;;;;;;;;15.60;86.00;;;;;;4977834;28;19914;-83
2023/08/11 04:49:42;;;;;;;;;;;15.60;85.70;;;;;;4982436;28;19929;-83
2023/08/11 04:52:08;;;;;;;;;;;15.60;86.00;;;;;;4980480;28;19986;-84
2023/08/11 04:54:33;;;;;;;;;;;15.70;85.90;;;;;;4984538;28;19915;-84
2023/08/11 04:56:59;;;;;;;;;;;15.70;85.60;;;;;;4981267;28;19925;-84
2023/08/11 04:59:24;;;;;;;;;;;15.70;85.70;;;;;;4996269;28;19922;-84
2023/08/11 05:01:50;;;;;;;;;;;15.70;85.40;;;;;;4978493;28;20395;-84
2023/08/11 05:04:15;;;;;;;;;;;15.70;85.40;;;;;;4998397;28;20048;-84
2023/08/11 05:06:41;;;;;;;;;;;15.80;85.40;;;;;;4984784;28;19914;-83
2023/08/11 05:09:07;;;;;;;;;;;15.70;85.80;;;;;;4985603;28;19916;-84
2023/08/11 05:11:32;;;;;;;;;;;15.70;85.90;;;;;;4985025;28;19921;-82
2023/08/11 05:13:57;;;;;;;;;;;15.60;86.30;;;;;;4984287;28;19910;-83
2023/08/11 05:16:24;;;;;;;;;;;15.60;86.40;;;;;;4983880;28;19925;-83
2023/08/11 05:18:49;;;;;;;;;;;15.60;86.50;;;;;;4985118;28;19957;-84
2023/08/11 05:21:15;;;;;;;;;;;15.70;86.70;;;;;;4983486;28;19914;-83
2023/08/11 05:23:40;;;;;;;;;;;15.70;86.60;;;;;;4985079;28;20026;-84
2023/08/11 05:26:06;;;;;;;;;;;15.80;86.70;;;;;;4991433;28;20550;-83
2023/08/11 05:28:32;;;;;;;;;;;15.80;86.70;;;;;;4983881;28;20342;-83
2023/08/11 05:30:57;;;;;;;;;;;15.90;86.60;;;;;;4984686;28;19910;-83
2023/08/11 05:33:24;;;;;;;;;;;16.00;86.70;;;;;;4982178;28;19914;-83
2023/08/11 05:35:49;;;;;;;;;;;16.00;86.70;;;;;;4983742;28;19914;-83
2023/08/11 05:38:15;;;;;;;;;;;16.00;86.80;;;;;;4982764;28;19968;-84
2023/08/11 05:40:42;;;;;;;;;;;16.00;86.60;;;;;;4985192;28;19910;-84
2023/08/11 05:43:08;;;;;;;;;;;16.00;86.60;;;;;;4983017;28;20426;-83
2023/08/11 05:45:33;;;;;;;;;;;16.10;86.50;;;;;;4987165;28;19911;-83
2023/08/11 05:47:59;;;;;;;;;;;16.10;86.40;;;;;;4982735;28;19916;-82
2023/08/11 05:50:24;;;;;;;;;;;16.20;86.30;;;;;;4985216;28;19910;-83
2023/08/11 05:52:50;;;;;;;;;;;16.30;86.20;;;;;;4983117;28;19914;-84
2023/08/11 05:55:15;;;;;;;;;;;16.40;86.00;;;;;;4985933;28;19914;-83
2023/08/11 05:57:41;;;;;;;;;;;16.40;85.40;;;;;;4986328;28;19913;-83
2023/08/11 06:00:08;;;;;;;;;;;16.40;84.90;;;;;;5011879;28;19909;-85
2023/08/11 06:02:34;;;;;;;;;;;16.60;84.60;;;;;;4990800;28;19926;-85
2023/08/11 06:04:59;;;;;;;;;;;16.60;84.60;;;;;;4999703;28;19921;-85
2023/08/11 06:07:25;;;;;;;;;;;16.80;84.70;;;;;;4980803;28;19972;-86
2023/08/11 06:09:50;;;;;;;;;;;16.80;84.70;;;;;;4980008;28;19914;-83
2023/08/11 06:12:16;;;;;;;;;;;16.90;84.80;;;;;;4982183;28;20391;-83
2023/08/11 06:14:41;;;;;;;;;;;17.00;85.00;;;;;;4988915;28;19996;-84
2023/08/11 06:17:10;;;;;;;;;;;17.10;85.10;;;;;;4994588;28;19945;-84
2023/08/11 06:19:35;;;;;;;;;;;17.10;84.30;;;;;;4989304;28;19914;-85
2023/08/11 06:22:02;;;;;;;;;;;17.30;83.80;;;;;;4984507;28;19921;-84
2023/08/11 06:24:27;;;;;;;;;;;17.30;83.50;;;;;;4984513;28;19914;-85
2023/08/11 06:26:53;;;;;;;;;;;17.40;83.50;;;;;;4995394;28;20450;-85
2023/08/11 06:29:19;;;;;;;;;;;17.60;83.10;;;;;;4990223;28;19914;-87
2023/08/11 06:31:45;;;;;;;;;;;17.60;82.80;;;;;;4989522;28;19933;-84
2023/08/11 06:34:10;;;;;;;;;;;17.60;82.40;;;;;;4994886;28;19914;-84
2023/08/11 06:36:36;;;;;;;;;;;17.70;82.60;;;;;;4979901;28;19972;-86
2023/08/11 06:39:01;;;;;;;;;;;17.70;82.30;;;;;;4979581;28;19920;-85
2023/08/11 06:41:26;;;;;;;;;;;17.80;83.00;;;;;;4979358;28;19926;-85
2023/08/11 06:43:53;;;;;;;;;;;17.80;82.40;;;;;;4976056;28;19938;-84
2023/08/11 06:46:18;;;;;;;;;;;17.90;82.10;;;;;;4969305;28;19915;-85
2023/08/11 06:48:44;;;;;;;;;;;17.90;82.80;;;;;;4967751;29;19910;-85
2023/08/11 06:51:09;;;;;;;;;;;18.00;82.60;;;;;;4962214;28;19910;-85
2023/08/11 06:53:35;;;;;;;;;;;18.00;82.00;;;;;;4961958;29;19919;-85
2023/08/11 06:56:00;;;;;;;;;;;18.10;82.10;;;;;;4980121;28;19986;-85
2023/08/11 06:58:25;;;;;;;;;;;18.10;82.30;;;;;;4980977;28;20037;-85
2023/08/11 07:00:51;;;;;;;;;;;18.30;80.40;;;;;;4982480;28;19914;-85
2023/08/11 07:03:16;;;;;;;;;;;18.60;77.10;;;;;;4983191;28;19914;-85
2023/08/11 07:05:42;;;;;;;;;;;18.70;77.30;;;;;;4982527;28;19921;-85
2023/08/11 07:08:07;;;;;;;;;;;18.90;76.60;;;;;;4984590;28;19915;-83
2023/08/11 07:10:33;;;;;;;;;;;19.10;75.30;;;;;;4998441;28;19914;-84
2023/08/11 07:12:58;;;;;;;;;;;19.10;75.80;;;;;;4997786;28;19902;-85
2023/08/11 07:15:24;;;;;;;;;;;19.10;75.60;;;;;;4985314;28;19918;-85
2023/08/11 07:17:50;;;;;;;;;;;19.20;74.70;;;;;;4976139;28;19914;-84
2023/08/11 07:20:15;;;;;;;;;;;19.20;73.80;;;;;;4985441;28;19914;-85
2023/08/11 07:22:41;;;;;;;;;;;19.30;74.50;;;;;;4986189;28;20281;-84
2023/08/11 07:25:07;;;;;;;;;;;19.40;72.70;;;;;;4981389;28;20020;-84
2023/08/11 07:27:32;;;;;;;;;;;19.50;72.60;;;;;;4984006;28;20291;-84
2023/08/11 07:29:58;;;;;;;;;;;19.60;73.80;;;;;;4983531;28;19910;-84
2023/08/11 07:32:23;;;;;;;;;;;19.60;75.40;;;;;;4985341;28;19914;-84
2023/08/11 07:34:49;;;;;;;;;;;19.60;73.60;;;;;;4987980;28;19918;-84
2023/08/11 07:37:14;;;;;;;;;;;19.80;73.20;;;;;;4981736;28;19925;-83
2023/08/11 07:39:40;;;;;;;;;;;19.90;72.00;;;;;;4986247;28;19910;-84
2023/08/11 07:42:05;;;;;;;;;;;20.10;71.10;;;;;;4976643;28;19914;-83
2023/08/11 07:44:31;;;;;;;;;;;20.10;71.80;;;;;;4973834;28;19918;-84
2023/08/11 07:46:57;;;;;;;;;;;20.20;71.70;;;;;;4979785;28;19937;-84
2023/08/11 07:49:23;;;;;;;;;;;20.20;72.80;;;;;;4984161;28;19953;-84
2023/08/11 07:51:48;;;;;;;;;;;20.30;72.30;;;;;;4987492;28;19910;-84
2023/08/11 07:54:14;;;;;;;;;;;20.40;71.00;;;;;;4985674;28;19937;-84
2023/08/11 07:56:40;;;;;;;;;;;20.40;71.50;;;;;;4985591;28;19950;-84
2023/08/11 07:59:05;;;;;;;;;;;20.30;72.00;;;;;;4984737;28;19965;-83
2023/08/11 08:01:31;;;;;;;;;;;20.40;72.10;;;;;;4987511;28;19918;-83
2023/08/11 08:03:57;;;;;;;;;;;20.50;72.30;;;;;;5010992;23;20469;-88
2023/08/11 08:06:22;;;;;;;;;;;20.60;71.60;;;;;;4981605;28;19918;-87
2023/08/11 08:08:48;;;;;;;;;;;20.70;72.40;;;;;;4976837;28;19914;-87
2023/08/11 08:11:13;;;;;;;;;;;20.90;70.00;;;;;;5001362;28;20395;-87
2023/08/11 08:13:39;;;;;;;;;;;21.00;70.30;;;;;;4997533;28;19914;-87
2023/08/11 08:16:04;;;;;;;;;;;21.10;69.50;;;;;;4995680;28;20380;-87
2023/08/11 08:18:30;;;;;;;;;;;21.30;67.50;;;;;;5020622;28;19973;-88
2023/08/11 08:20:55;;;;;;;;;;;21.40;66.60;;;;;;5001153;28;20008;-87
2023/08/11 08:23:21;;;;;;;;;;;21.30;66.90;;;;;;4997392;28;20439;-87
2023/08/11 08:25:47;;;;;;;;;;;21.40;67.90;;;;;;5011481;28;20307;-87
2023/08/11 08:28:12;;;;;;;;;;;21.50;68.10;;;;;;4994405;28;19914;-87
2023/08/11 08:30:38;;;;;;;;;;;21.60;67.80;;;;;;4996172;28;20052;-87
2023/08/11 08:33:05;;;;;;;;;;;21.60;66.00;;;;;;5011804;28;19917;-87
2023/08/11 08:35:31;;;;;;;;;;;21.90;66.00;;;;;;4996900;28;20307;-85
2023/08/11 08:37:56;;;;;;;;;;;22.10;64.60;;;;;;4996328;28;19910;-86
2023/08/11 08:40:22;;;;;;;;;;;22.10;65.50;;;;;;4994988;28;19973;-86
2023/08/11 08:42:48;;;;;;;;;;;22.20;64.30;;;;;;5015470;28;19917;-85
2023/08/11 08:45:14;;;;;;;;;;;22.20;64.60;;;;;;4996624;28;19917;-85
2023/08/11 08:47:40;;;;;;;;;;;22.30;63.40;;;;;;4996260;28;20307;-87
2023/08/11 08:50:06;;;;;;;;;;;22.40;64.50;;;;;;4996379;28;20000;-87
2023/08/11 08:52:32;;;;;;;;;;;22.50;64.20;;;;;;5011956;28;20351;-88
2023/08/11 08:55:00;;;;;;;;;;;22.40;64.60;;;;;;4995914;28;19910;-85
2023/08/11 08:57:26;;;;;;;;;;;22.40;63.40;;;;;;4979851;28;19918;-84
2023/08/11 08:59:51;;;;;;;;;;;22.50;64.10;;;;;;4994885;28;20291;-84
2023/08/11 09:02:17;;;;;;;;;;;22.60;64.40;;;;;;4993512;28;19961;-85
2023/08/11 09:04:43;;;;;;;;;;;22.60;66.00;;;;;;4994387;28;19920;-85
2023/08/11 09:07:08;;;;;;;;;;;22.60;65.50;;;;;;4993450;28;20439;-86
2023/08/11 09:09:34;;;;;;;;;;;22.80;63.80;;;;;;4984187;28;20009;-85
2023/08/11 09:11:59;;;;;;;;;;;22.80;65.80;;;;;;4991965;28;20406;-85
2023/08/11 09:14:25;;;;;;;;;;;22.90;63.30;;;;;;4984400;28;19918;-86
2023/08/11 09:16:52;;;;;;;;;;;22.90;61.90;;;;;;4981940;28;20012;-86
2023/08/11 09:19:17;;;;;;;;;;;23.00;62.30;;;;;;4983128;28;19914;-85
2023/08/11 09:21:43;;;;;;;;;;;23.20;62.30;;;;;;4975098;28;19917;-85
2023/08/11 09:24:10;;;;;;;;;;;23.30;61.90;;;;;;4974545;28;19925;-85
2023/08/11 09:26:36;;;;;;;;;;;23.40;62.10;;;;;;4985053;28;19918;-84
2023/08/11 09:29:03;;;;;;;;;;;23.40;62.30;;;;;;4979522;28;20013;-84
2023/08/11 09:31:29;;;;;;;;;;;23.50;60.30;;;;;;4980511;28;19939;-85
2023/08/11 09:33:55;;;;;;;;;;;23.70;59.50;;;;;;4990714;28;19917;-84
2023/08/11 09:36:20;;;;;;;;;;;23.80;59.60;;;;;;4985465;28;19997;-85
2023/08/11 09:38:49;;;;;;;;;;;23.80;58.90;;;;;;4996265;28;19910;-84
2023/08/11 09:41:15;;;;;;;;;;;23.90;59.50;;;;;;4976565;28;19948;-84
2023/08/11 09:43:47;;;;;;;;;;;23.90;60.10;;;;;;4993184;28;19914;-85
2023/08/11 09:46:12;;;;;;;;;;;24.00;60.00;;;;;;4994800;28;19910;-85
2023/08/11 09:48:38;;;;;;;;;;;23.90;61.00;;;;;;4989975;28;19921;-84
2023/08/11 09:51:05;;;;;;;;;;;23.90;60.90;;;;;;4977466;28;19925;-85
2023/08/11 09:53:33;;;;;;;;;;;23.80;60.30;;;;;;4978543;28;19962;-85
2023/08/11 09:55:59;;;;;;;;;;;23.80;61.20;;;;;;4985368;28;19941;-86
2023/08/11 09:58:26;;;;;;;;;;;23.90;59.10;;;;;;4983041;28;20399;-85
2023/08/11 10:00:52;;;;;;;;;;;24.10;56.80;;;;;;4975759;28;19910;-85
2023/08/11 10:03:19;;;;;;;;;;;24.20;57.70;;;;;;4988387;28;19922;-85
2023/08/11 10:05:46;;;;;;;;;;;24.20;57.20;;;;;;4983959;28;19921;-85
2023/08/11 10:08:16;;;;;;;;;;;24.40;56.20;;;;;;4994591;28;19910;-85
2023/08/11 10:10:41;;;;;;;;;;;24.60;54.20;;;;;;4993383;28;19914;-85
2023/08/11 10:13:08;;;;;;;;;;;24.60;54.40;;;;;;4987098;28;19921;-85
2023/08/11 10:15:34;;;;;;;;;;;24.70;55.10;;;;;;4993684;28;20127;-85
2023/08/11 10:18:01;;;;;;;;;;;24.80;55.00;;;;;;4988425;28;19997;-85
2023/08/11 10:20:26;;;;;;;;;;;24.90;54.60;;;;;;4993810;28;19910;-85
2023/08/11 10:22:52;;;;;;;;;;;25.10;53.70;;;;;;4993588;28;19910;-86
2023/08/11 10:25:17;;;;;;;;;;;25.10;53.40;;;;;;4992416;28;19909;-85
2023/08/11 10:27:43;;;;;;;;;;;25.10;52.80;;;;;;4992295;28;19920;-85
2023/08/11 10:30:10;;;;;;;;;;;25.30;53.20;;;;;;4992672;28;20003;-85
2023/08/11 10:32:35;;;;;;;;;;;25.40;52.10;;;;;;4980492;28;19930;-86
2023/08/11 10:35:03;;;;;;;;;;;25.20;51.30;;;;;;4993586;28;19910;-85
2023/08/11 10:37:30;;;;;;;;;;;25.30;51.00;;;;;;4992829;28;19917;-85
2023/08/11 10:40:03;;;;;;;;;;;25.50;51.10;;;;;;4992943;28;19917;-85
2023/08/11 10:42:28;;;;;;;;;;;25.40;51.50;;;;;;4980423;28;20367;-85
2023/08/11 10:45:05;;;;;;;;;;;25.40;51.80;;;;;;4973953;28;19946;-84
2023/08/11 10:47:31;;;;;;;;;;;25.50;49.40;;;;;;4986536;28;19922;-86
2023/08/11 10:49:56;;;;;;;;;;;25.60;50.80;;;;;;4994496;28;19920;-86
2023/08/11 10:52:22;;;;;;;;;;;25.60;50.60;;;;;;4996734;28;19910;-86
2023/08/11 10:54:51;;;;;;;;;;;25.60;51.00;;;;;;4993994;28;19910;-85
2023/08/11 10:57:16;;;;;;;;;;;25.50;51.70;;;;;;4982189;28;20326;-86
2023/08/11 10:59:41;;;;;;;;;;;25.60;50.70;;;;;;4975289;28;19965;-88
2023/08/11 11:02:07;;;;;;;;;;;25.60;51.60;;;;;;4994289;28;20387;-87
2023/08/11 11:04:32;;;;;;;;;;;25.80;49.20;;;;;;4993924;28;19913;-86
2023/08/11 11:06:59;;;;;;;;;;;25.90;50.50;;;;;;4997126;28;19910;-87
2023/08/11 11:09:25;;;;;;;;;;;25.90;49.90;;;;;;5029849;28;19977;-87
2023/08/11 11:11:51;;;;;;;;;;;26.00;49.00;;;;;;4986425;28;19956;-87
2023/08/11 11:14:19;;;;;;;;;;;26.10;49.80;;;;;;4983985;28;19957;-87
2023/08/11 11:16:47;;;;;;;;;;;26.00;49.20;;;;;;5008520;28;19921;-89
2023/08/11 11:19:13;;;;;;;;;;;26.30;48.50;;;;;;4993045;28;19910;-88
2023/08/11 11:21:42;;;;;;;;;;;26.30;48.40;;;;;;4992393;28;19914;-89
2023/08/11 11:24:11;;;;;;;;;;;26.10;49.80;;;;;;4989365;28;20438;-88
2023/08/11 11:26:36;;;;;;;;;;;26.10;48.80;;;;;;4993243;28;20000;-87
2023/08/11 11:29:04;;;;;;;;;;;26.20;48.60;;;;;;4991043;28;19957;-88
2023/08/11 11:31:31;;;;;;;;;;;26.30;47.90;;;;;;4985454;28;20074;-88
2023/08/11 11:33:57;;;;;;;;;;;26.40;47.40;;;;;;4989153;28;19918;-87
2023/08/11 11:36:23;;;;;;;;;;;26.30;48.40;;;;;;4991498;28;19922;-88
2023/08/11 11:38:48;;;;;;;;;;;26.40;48.10;;;;;;4991787;28;19921;-87
2023/08/11 11:41:15;;;;;;;;;;;26.50;45.90;;;;;;4987845;28;19920;-87
2023/08/11 11:43:42;;;;;;;;;;;26.40;46.50;;;;;;4985637;28;19925;-87
2023/08/11 11:46:14;;;;;;;;;;;26.40;48.00;;;;;;4990380;28;19914;-86
2023/08/11 11:48:43;;;;;;;;;;;26.50;48.20;;;;;;4991840;28;19917;-83
2023/08/11 11:51:09;;;;;;;;;;;26.30;52.10;;;;;;4988616;28;19925;-84
2023/08/11 11:53:35;;;;;;;;;;;26.20;51.10;;;;;;4990898;28;19917;-84
2023/08/11 11:56:01;;;;;;;;;;;26.30;49.70;;;;;;4991634;28;19933;-83
2023/08/11 11:58:26;;;;;;;;;;;26.30;49.40;;;;;;4992764;28;19945;-85
2023/08/11 12:00:53;;;;;;;;;;;26.30;48.00;;;;;;4991224;28;19917;-85
2023/08/11 12:03:20;;;;;;;;;;;26.50;47.50;;;;;;5006843;28;19992;-85
2023/08/11 12:05:46;;;;;;;;;;;26.50;47.80;;;;;;4991922;28;20000;-86
2023/08/11 12:08:18;;;;;;;;;;;26.90;47.60;;;;;;4990096;28;19984;-85
2023/08/11 12:10:46;;;;;;;;;;;27.00;45.90;;;;;;4991032;28;19953;-86
2023/08/11 12:13:16;;;;;;;;;;;27.00;46.80;;;;;;4990320;28;19928;-86
2023/08/11 12:15:41;;;;;;;;;;;26.90;46.20;;;;;;4988806;28;19963;-86
2023/08/11 12:18:07;;;;;;;;;;;26.80;48.40;;;;;;4988557;28;19929;-86
2023/08/11 12:20:35;;;;;;;;;;;26.60;48.60;;;;;;5003169;28;19929;-86
2023/08/11 12:23:00;;;;;;;;;;;26.60;48.50;;;;;;4988915;28;20383;-86
2023/08/11 12:25:26;;;;;;;;;;;26.80;47.60;;;;;;4985123;28;19914;-90
2023/08/11 12:27:55;;;;;;;;;;;26.80;47.80;;;;;;4983940;28;19921;-85
2023/08/11 12:30:21;;;;;;;;;;;26.80;48.30;;;;;;5004601;28;19930;-87
2023/08/11 12:32:57;;;;;;;;;;;26.90;47.50;;;;;;4996882;28;19929;-86
2023/08/11 12:35:23;;;;;;;;;;;27.00;47.10;;;;;;4995903;28;20045;-86
2023/08/11 12:37:49;;;;;;;;;;;27.10;46.60;;;;;;5003615;28;19914;-86
2023/08/11 12:40:14;;;;;;;;;;;27.30;45.70;;;;;;4991179;28;20016;-86
2023/08/11 12:42:40;;;;;;;;;;;27.30;45.50;;;;;;4990181;28;19921;-86
2023/08/11 12:45:07;;;;;;;;;;;27.20;45.50;;;;;;4978315;28;20380;-86
2023/08/11 12:56:26;;;;;;;;;;;27.10;47.10;;;;;;4985311;28;20362;-86
2023/08/11 12:58:57;;;;;;;;;;;27.20;45.70;;;;;;4975271;28;19910;-87
2023/08/11 13:01:23;;;;;;;;;;;27.20;46.20;;;;;;4975964;28;20053;-87
2023/08/11 13:03:51;;;;;;;;;;;27.10;46.50;;;;;;4993400;28;20020;-87
2023/08/11 13:06:17;;;;;;;;;;;27.20;46.00;;;;;;4975564;28;19917;-87
2023/08/11 13:08:47;;;;;;;;;;;27.20;47.20;;;;;;4981762;28;19913;-86
2023/08/11 13:11:42;;;;;;;;;;;27.40;46.00;;;;;;4984681;28;20372;-87
2023/08/11 13:14:08;;;;;;;;;;;27.50;46.60;;;;;;4997272;23;19980;-81
2023/08/11 13:16:35;;;;;;;;;;;27.40;47.10;;;;;;4990522;28;19918;-81
2023/08/11 13:19:00;;;;;;;;;;;27.50;46.50;;;;;;5005121;28;19910;-82
2023/08/11 13:21:25;;;;;;;;;;;27.50;47.60;;;;;;5000203;28;19917;-81
2023/08/11 13:23:51;;;;;;;;;;;27.50;46.30;;;;;;5002500;28;19914;-82
2023/08/11 13:26:16;;;;;;;;;;;27.60;46.50;;;;;;5003780;28;19909;-81
2023/08/11 13:28:42;;;;;;;;;;;27.70;46.00;;;;;;5007427;28;19910;-81
2023/08/11 13:31:07;;;;;;;;;;;27.60;47.10;;;;;;5006054;28;19909;-82
2023/08/11 13:33:33;;;;;;;;;;;27.70;47.40;;;;;;5002731;28;19914;-81
2023/08/11 13:35:58;;;;;;;;;;;27.60;47.40;;;;;;4999361;28;20012;-80
2023/08/11 13:38:26;;;;;;;;;;;27.60;47.10;;;;;;5003495;28;19914;-82
2023/08/11 13:40:52;;;;;;;;;;;27.60;48.00;;;;;;5004199;28;19910;-81
2023/08/11 13:43:20;;;;;;;;;;;27.60;47.90;;;;;;5004399;28;19914;-81
2023/08/11 13:45:46;;;;;;;;;;;27.70;47.50;;;;;;5003765;28;19925;-82
2023/08/11 13:48:11;;;;;;;;;;;27.70;47.60;;;;;;5006187;28;19914;-81
2023/08/11 13:50:37;;;;;;;;;;;27.70;47.80;;;;;;5007620;28;19920;-83
2023/08/11 13:53:02;;;;;;;;;;;27.60;48.50;;;;;;5004721;28;19918;-82
2023/08/11 13:55:28;;;;;;;;;;;27.60;48.20;;;;;;4998683;28;19918;-82
2023/08/11 13:57:53;;;;;;;;;;;27.60;48.40;;;;;;4999153;28;19993;-83
2023/08/11 14:00:19;;;;;;;;;;;27.80;48.10;;;;;;5000877;28;19961;-83
2023/08/11 14:02:44;;;;;;;;;;;27.70;48.40;;;;;;5006638;28;19917;-82
2023/08/11 14:05:10;;;;;;;;;;;27.90;47.40;;;;;;5011383;28;19914;-81
2023/08/11 14:07:35;;;;;;;;;;;28.00;48.90;;;;;;5011621;28;19964;-83
2023/08/11 14:10:00;;;;;;;;;;;28.10;48.10;;;;;;5010618;28;19942;-81
2023/08/11 14:12:26;;;;;;;;;;;28.20;47.60;;;;;;5007649;28;19918;-81
2023/08/11 14:14:51;;;;;;;;;;;28.20;47.30;;;;;;5008259;28;20271;-80
2023/08/11 14:17:17;;;;;;;;;;;28.30;47.70;;;;;;5006773;28;19948;-82
2023/08/11 14:19:42;;;;;;;;;;;28.30;47.00;;;;;;5007628;28;20041;-82